Time;durP1;ratioP1;P1;durP2;ratioP2;P2;SDS_P1;SDS_P2;PMS_P1;PMS_P2;Temp;Humidity;BMP_temperature;BMP_pressure;BME280_temperature;BME280_humidity;BME280_pressure;Samples;Min_cycle;Max_cycle;Signal;HPM_P1;HPM_P2
2023/12/27 00:02:14;;;;;;;10.17;1.53;;;;;;;3.28;100.00;101475.28;6052002;28;20034;-73
2023/12/27 00:05:09;;;;;;;2.92;0.90;;;;;;;3.34;100.00;101485.41;6050491;28;20088;-74
2023/12/27 00:08:05;;;;;;;8.85;0.95;;;;;;;3.32;100.00;101486.41;6055607;28;20030;-74
2023/12/27 00:11:00;;;;;;;6.18;0.90;;;;;;;3.30;100.00;101489.13;6051480;28;20386;-74
2023/12/27 00:13:56;;;;;;;4.27;0.70;;;;;;;3.27;100.00;101493.69;6047798;28;20178;-74
2023/12/27 00:16:51;;;;;;;4.30;0.70;;;;;;;3.29;100.00;101494.47;6050475;28;20108;-72
2023/12/27 00:19:46;;;;;;;4.83;0.80;;;;;;;3.26;100.00;101487.59;6059026;28;20105;-74
2023/12/27 00:22:41;;;;;;;14.67;1.33;;;;;;;3.33;100.00;101496.84;6053190;28;20084;-73
2023/12/27 00:25:37;;;;;;;12.83;1.23;;;;;;;3.34;100.00;101495.88;6055571;28;20034;-73
2023/12/27 00:28:32;;;;;;;5.27;1.00;;;;;;;3.31;100.00;101501.31;6050402;28;20033;-74
2023/12/27 00:31:27;;;;;;;5.00;1.33;;;;;;;3.39;100.00;101500.91;6050263;28;20556;-74
2023/12/27 00:34:23;;;;;;;4.53;0.93;;;;;;;3.34;100.00;101497.69;6045615;28;20052;-74
2023/12/27 00:37:18;;;;;;;4.67;1.07;;;;;;;3.26;100.00;101498.06;6050381;28;20424;-74
2023/12/27 00:40:13;;;;;;;7.73;1.37;;;;;;;3.24;100.00;101523.50;6055762;28;20282;-74
2023/12/27 00:43:09;;;;;;;3.03;0.93;;;;;;;3.09;100.00;101508.59;6049300;28;20064;-74
2023/12/27 00:46:07;;;;;;;3.05;0.93;;;;;;;3.08;100.00;101521.75;6050369;28;20859;-74
2023/12/27 00:49:03;;;;;;;5.82;1.10;;;;;;;3.10;100.00;101527.78;6050156;28;20026;-73
2023/12/27 00:51:58;;;;;;;5.20;0.95;;;;;;;3.04;100.00;101534.19;6054694;28;20052;-73
2023/12/27 00:54:54;;;;;;;8.15;1.30;;;;;;;3.02;100.00;101537.81;6049066;28;20038;-73
2023/12/27 00:57:49;;;;;;;4.13;0.70;;;;;;;3.00;100.00;101543.13;6051197;28;20489;-73
2023/12/27 01:00:45;;;;;;;8.40;1.17;;;;;;;3.01;100.00;101534.34;6049501;28;20073;-74
2023/12/27 01:03:40;;;;;;;11.18;1.40;;;;;;;3.05;100.00;101543.72;6048396;28;20034;-73
2023/12/27 01:06:36;;;;;;;5.78;0.98;;;;;;;2.98;100.00;101540.59;6054250;28;20046;-74
2023/12/27 01:09:31;;;;;;;11.55;1.45;;;;;;;3.03;100.00;101550.81;6017516;28;20128;-73
2023/12/27 01:12:27;;;;;;;3.65;1.25;;;;;;;2.97;100.00;101548.50;6042128;28;20038;-73
2023/12/27 01:15:22;;;;;;;2.73;0.53;;;;;;;2.93;100.00;101555.69;6047314;28;20636;-73
2023/12/27 01:18:17;;;;;;;7.05;1.20;;;;;;;2.85;100.00;101560.44;6048527;28;20026;-73
2023/12/27 01:21:13;;;;;;;2.80;0.70;;;;;;;2.85;100.00;101567.47;6029458;28;20034;-74
2023/12/27 01:24:09;;;;;;;10.50;1.50;;;;;;;2.87;100.00;101583.94;6048111;28;20256;-73
2023/12/27 01:27:04;;;;;;;6.00;1.20;;;;;;;2.81;100.00;101582.47;6050812;28;20037;-73
2023/12/27 01:30:00;;;;;;;4.67;0.60;;;;;;;2.78;100.00;101579.16;6049134;28;20038;-74
2023/12/27 01:32:55;;;;;;;5.17;0.90;;;;;;;2.80;100.00;101590.41;6049298;28;20049;-73
2023/12/27 01:35:51;;;;;;;8.20;1.25;;;;;;;2.80;100.00;101596.47;6036647;28;20123;-73
2023/12/27 01:38:46;;;;;;;8.13;1.10;;;;;;;2.73;100.00;101602.09;6047441;28;20042;-73
2023/12/27 01:41:41;;;;;;;8.45;1.00;;;;;;;2.78;100.00;101605.34;6053685;28;20030;-73
2023/12/27 01:44:37;;;;;;;11.43;0.90;;;;;;;2.77;100.00;101614.13;6047837;28;20030;-73
2023/12/27 01:47:33;;;;;;;1.03;0.60;;;;;;;2.72;100.00;101600.38;6050514;28;20042;-74
2023/12/27 01:50:29;;;;;;;7.03;0.77;;;;;;;2.67;100.00;101602.38;6054070;28;20053;-73
2023/12/27 01:53:24;;;;;;;5.13;1.00;;;;;;;2.62;100.00;101607.00;6051910;28;20056;-73
2023/12/27 01:56:20;;;;;;;4.75;1.15;;;;;;;2.62;100.00;101620.94;6045095;28;20033;-74
2023/12/27 01:59:15;;;;;;;4.33;0.83;;;;;;;2.43;100.00;101609.66;6048772;28;20076;-73
2023/12/27 02:02:11;;;;;;;7.40;1.00;;;;;;;2.40;100.00;101621.09;6052229;28;20037;-73
2023/12/27 02:05:06;;;;;;;3.33;0.68;;;;;;;2.29;100.00;101620.75;6048678;28;20265;-74
2023/12/27 02:08:02;;;;;;;4.38;0.95;;;;;;;2.24;100.00;101620.13;6049091;28;20118;-74
2023/12/27 02:10:58;;;;;;;4.05;0.93;;;;;;;2.12;100.00;101615.44;6050286;28;20042;-74
2023/12/27 02:13:53;;;;;;;6.73;0.50;;;;;;;2.00;100.00;101605.56;6046408;28;20030;-73
2023/12/27 02:16:49;;;;;;;3.63;0.97;;;;;;;1.99;100.00;101601.22;6050494;28;20041;-73
2023/12/27 02:19:45;;;;;;;11.52;0.90;;;;;;;2.05;100.00;101603.56;6057673;28;20393;-73
2023/12/27 02:22:41;;;;;;;8.80;1.00;;;;;;;1.97;100.00;101610.06;6037803;28;20405;-73
2023/12/27 02:25:37;;;;;;;4.05;1.05;;;;;;;1.88;100.00;101602.63;6039950;28;20038;-73
2023/12/27 02:28:32;;;;;;;7.40;1.00;;;;;;;1.76;100.00;101586.59;6054980;28;20195;-73
2023/12/27 02:31:27;;;;;;;8.97;1.10;;;;;;;1.82;100.00;101590.72;6052976;28;20042;-73
2023/12/27 02:34:23;;;;;;;4.60;0.63;;;;;;;1.85;100.00;101585.31;6052539;28;20304;-73
2023/12/27 02:37:18;;;;;;;7.17;1.03;;;;;;;1.83;100.00;101571.47;6057795;28;20105;-73
2023/12/27 02:40:13;;;;;;;5.73;1.57;;;;;;;1.95;100.00;101584.00;6054877;28;20033;-74
2023/12/27 02:43:09;;;;;;;6.23;0.80;;;;;;;1.77;100.00;101580.44;6054620;28;20056;-73
2023/12/27 02:46:04;;;;;;;3.93;0.60;;;;;;;1.78;100.00;101579.53;6048016;28;20292;-73
2023/12/27 02:48:59;;;;;;;5.77;0.87;;;;;;;1.78;100.00;101579.53;6060488;28;20054;-74
2023/12/27 02:51:55;;;;;;;6.72;0.77;;;;;;;1.79;100.00;101596.06;6038884;28;20029;-74
2023/12/27 02:54:50;;;;;;;6.80;1.00;;;;;;;1.74;100.00;101590.19;6055442;28;20440;-74
2023/12/27 02:57:45;;;;;;;6.20;1.17;;;;;;;1.74;100.00;101596.25;6056148;28;20120;-73
2023/12/27 03:00:42;;;;;;;6.77;0.93;;;;;;;1.77;100.00;101576.97;6052471;28;20072;-73
2023/12/27 03:03:38;;;;;;;5.57;1.75;;;;;;;1.70;100.00;101578.16;6046965;28;20057;-73
2023/12/27 03:06:33;;;;;;;5.17;1.20;;;;;;;1.64;100.00;101562.75;6054794;28;20032;-73
2023/12/27 03:09:29;;;;;;;4.03;1.30;;;;;;;1.58;100.00;101573.47;6052530;28;20030;-73
2023/12/27 03:12:24;;;;;;;6.00;0.75;;;;;;;1.60;100.00;101574.28;6051375;28;20033;-73
2023/12/27 03:15:19;;;;;;;3.53;1.13;;;;;;;1.62;100.00;101582.91;6052553;28;20120;-73
2023/12/27 03:18:15;;;;;;;6.93;1.20;;;;;;;1.59;100.00;101573.44;6051043;28;20037;-75
2023/12/27 03:21:10;;;;;;;5.23;1.20;;;;;;;1.55;100.00;101586.72;6053959;28;20029;-72
2023/12/27 03:24:05;;;;;;;12.30;1.43;;;;;;;1.34;100.00;101577.16;6058339;28;20030;-74
2023/12/27 03:27:01;;;;;;;5.00;1.20;;;;;;;1.35;100.00;101579.72;6055693;28;20137;-74
2023/12/27 03:29:56;;;;;;;6.63;0.93;;;;;;;1.31;100.00;101577.28;6050565;28;20277;-72
2023/12/27 03:32:51;;;;;;;5.57;0.93;;;;;;;1.39;100.00;101586.50;6051480;28;20265;-73
2023/12/27 03:35:47;;;;;;;7.07;1.13;;;;;;;1.22;100.00;101577.72;6056840;28;20536;-73
2023/12/27 03:38:42;;;;;;;8.10;1.27;;;;;;;1.42;100.00;101575.91;6051500;28;20029;-72
2023/12/27 03:41:38;;;;;;;11.73;1.27;;;;;;;1.32;100.00;101590.31;6051272;28;20041;-73
2023/12/27 03:44:33;;;;;;;6.22;0.85;;;;;;;1.26;100.00;101579.25;6058110;28;20034;-72
2023/12/27 03:47:28;;;;;;;4.40;0.87;;;;;;;1.25;100.00;101578.41;6051224;28;20037;-73
2023/12/27 03:50:24;;;;;;;7.70;0.90;;;;;;;1.34;100.00;101587.63;6050617;28;20100;-72
2023/12/27 03:53:19;;;;;;;7.77;1.27;;;;;;;1.38;100.00;101582.22;6054680;28;20034;-74
2023/12/27 03:56:14;;;;;;;7.33;1.43;;;;;;;1.40;100.00;101587.34;6052673;28;20030;-72
2023/12/27 03:59:10;;;;;;;7.90;1.97;;;;;;;1.35;100.00;101590.19;6051263;28;20441;-73
2023/12/27 04:02:05;;;;;;;6.63;1.43;;;;;;;1.43;100.00;101598.53;6050305;28;20524;-72
2023/12/27 04:05:00;;;;;;;6.97;1.40;;;;;;;1.36;100.00;101591.84;6050497;28;20105;-73
2023/12/27 04:07:55;;;;;;;6.17;1.33;;;;;;;1.38;100.00;101584.81;6052012;28;20283;-73
2023/12/27 04:10:51;;;;;;;5.50;1.40;;;;;;;1.33;100.00;101602.47;6050565;28;20493;-73
2023/12/27 04:13:46;;;;;;;8.67;1.30;;;;;;;1.27;100.00;101584.44;6048189;28;20449;-72
2023/12/27 04:16:42;;;;;;;4.78;0.85;;;;;;;1.29;100.00;101589.59;6052325;28;20473;-73
2023/12/27 04:19:37;;;;;;;4.57;1.00;;;;;;;1.15;100.00;101588.41;6050713;28;20030;-72
2023/12/27 04:22:32;;;;;;;5.90;1.30;;;;;;;0.87;100.00;101558.31;6050951;28;20041;-73
2023/12/27 04:25:27;;;;;;;7.53;0.97;;;;;;;1.07;100.00;101576.59;6057923;28;20030;-73
2023/12/27 04:28:23;;;;;;;2.90;0.93;;;;;;;0.94;100.00;101581.47;6051545;28;20412;-73
2023/12/27 04:31:18;;;;;;;6.30;1.43;;;;;;;0.95;100.00;101580.56;6051999;28;20029;-73
2023/12/27 04:34:13;;;;;;;7.63;1.00;;;;;;;1.02;100.00;101586.38;6060117;28;20109;-73
2023/12/27 04:37:09;;;;;;;4.07;1.90;;;;;;;1.14;100.00;101588.50;6055433;28;20061;-73
2023/12/27 04:40:05;;;;;;;6.40;0.88;;;;;;;1.22;100.00;101599.47;6050329;28;20030;-72
2023/12/27 04:43:01;;;;;;;9.23;2.45;;;;;;;1.25;100.00;101607.13;6049580;28;20389;-72
2023/12/27 04:45:56;;;;;;;3.95;1.30;;;;;;;1.07;100.00;101589.66;6045515;28;20034;-72
2023/12/27 04:48:51;;;;;;;8.70;1.13;;;;;;;1.08;100.00;101581.75;6050191;28;20377;-72
2023/12/27 04:51:47;;;;;;;4.37;0.90;;;;;;;0.93;100.00;101600.66;6053043;28;20054;-73
2023/12/27 04:54:42;;;;;;;5.60;1.43;;;;;;;0.90;100.00;101603.38;6049451;28;20122;-72
2023/12/27 04:57:37;;;;;;;8.10;1.20;;;;;;;0.97;100.00;101615.31;6053470;28;20080;-73
2023/12/27 05:00:33;;;;;;;6.13;1.17;;;;;;;0.90;100.00;101587.72;6051069;28;20034;-72
2023/12/27 05:03:28;;;;;;;6.38;1.20;;;;;;;1.20;100.00;101612.56;6048487;28;20037;-73
2023/12/27 05:06:23;;;;;;;7.70;1.53;;;;;;;1.17;100.00;101597.03;6041344;28;20062;-73
2023/12/27 05:09:18;;;;;;;6.70;1.57;;;;;;;1.36;100.00;101619.78;6050940;28;20030;-73
2023/12/27 05:12:14;;;;;;;7.80;1.20;;;;;;;1.38;100.00;101621.41;6049377;28;20026;-73
2023/12/27 05:15:09;;;;;;;6.70;1.30;;;;;;;1.33;100.00;101619.91;6057973;28;20282;-72
2023/12/27 05:18:04;;;;;;;5.97;1.20;;;;;;;1.36;100.00;101615.38;6055109;28;20041;-73
2023/12/27 05:21:01;;;;;;;12.73;1.60;;;;;;;1.56;100.00;101624.97;6049561;28;20475;-73
2023/12/27 05:23:56;;;;;;;9.82;1.55;;;;;;;1.58;100.00;101636.19;6049396;28;20053;-73
2023/12/27 05:26:54;;;;;;;3.80;1.23;;;;;;;1.66;100.00;101631.50;6053507;28;20535;-72
2023/12/27 05:29:49;;;;;;;4.35;1.02;;;;;;;1.40;100.00;101608.25;6049344;28;20029;-73
2023/12/27 05:32:45;;;;;;;5.97;1.30;;;;;;;1.46;100.00;101635.00;6049558;28;20158;-73
2023/12/27 05:35:41;;;;;;;6.85;1.40;;;;;;;1.39;100.00;101627.44;6047840;28;20034;-72
2023/12/27 05:38:36;;;;;;;6.47;1.45;;;;;;;1.38;100.00;101631.84;6040017;28;20030;-73
2023/12/27 05:41:31;;;;;;;8.52;2.88;;;;;;;1.42;100.00;101616.88;6057008;28;20045;-73
2023/12/27 05:44:27;;;;;;;8.50;1.53;;;;;;;1.48;100.00;101629.69;6048285;28;20030;-72
2023/12/27 05:47:22;;;;;;;5.15;1.17;;;;;;;1.48;100.00;101621.84;6049921;28;20366;-72
2023/12/27 05:50:18;;;;;;;6.45;1.15;;;;;;;1.46;100.00;101618.47;6049213;28;20056;-73
2023/12/27 05:53:13;;;;;;;9.73;1.30;;;;;;;1.44;100.00;101615.06;6058781;28;20053;-72
2023/12/27 05:56:08;;;;;;;1.77;0.77;;;;;;;1.37;100.00;101618.84;6055392;28;20280;-73
2023/12/27 05:59:04;;;;;;;8.00;1.37;;;;;;;1.42;100.00;101619.50;6055645;28;20022;-73
2023/12/27 06:01:59;;;;;;;5.97;1.10;;;;;;;1.43;100.00;101610.75;6055767;28;20044;-72
2023/12/27 06:04:55;;;;;;;5.67;0.97;;;;;;;1.50;100.00;101604.31;6052519;28;20268;-72
2023/12/27 06:07:51;;;;;;;13.77;1.48;;;;;;;1.54;100.00;101617.22;6056009;28;20621;-72
2023/12/27 06:10:46;;;;;;;8.87;1.27;;;;;;;1.51;100.00;101611.25;6053385;28;20049;-72
2023/12/27 06:13:42;;;;;;;10.55;1.20;;;;;;;1.53;100.00;101610.28;6054483;28;20041;-72
2023/12/27 06:16:37;;;;;;;3.83;0.87;;;;;;;1.54;100.00;101613.75;6054405;28;20030;-73
2023/12/27 06:19:35;;;;;;;8.90;1.13;;;;;;;1.58;100.00;101610.06;6058621;28;20415;-72
2023/12/27 06:22:31;;;;;;;5.70;1.05;;;;;;;1.48;100.00;101616.63;6053408;28;20029;-73
2023/12/27 06:25:26;;;;;;;4.03;1.37;;;;;;;1.52;100.00;101624.25;6051907;28;20541;-72
2023/12/27 06:28:21;;;;;;;4.93;1.07;;;;;;;1.47;100.00;101622.78;6059480;28;20461;-72
2023/12/27 06:31:17;;;;;;;10.70;1.57;;;;;;;1.44;100.00;101617.69;6053943;28;20041;-72
2023/12/27 06:34:12;;;;;;;3.07;1.10;;;;;;;1.31;100.00;101617.34;6052477;28;20014;-72
2023/12/27 06:37:07;;;;;;;3.10;1.20;;;;;;;1.25;100.00;101628.03;6053580;28;20075;-72
2023/12/27 06:40:03;;;;;;;6.70;1.40;;;;;;;1.13;100.00;101615.50;6057160;28;20033;-72
2023/12/27 06:42:58;;;;;;;7.25;1.23;;;;;;;1.17;100.00;101609.22;6056588;28;20639;-72
2023/12/27 06:45:54;;;;;;;4.30;1.33;;;;;;;1.17;100.00;101615.31;6055315;28;20053;-72
2023/12/27 06:48:49;;;;;;;8.90;1.63;;;;;;;0.93;100.00;101612.84;6052527;28;20186;-72
2023/12/27 06:51:44;;;;;;;8.97;1.77;;;;;;;0.89;100.00;101612.16;6052668;28;20041;-72
2023/12/27 06:54:39;;;;;;;4.97;1.10;;;;;;;0.87;100.00;101608.72;6056059;28;20029;-72
2023/12/27 06:57:35;;;;;;;6.70;0.93;;;;;;;0.88;100.00;101609.59;6052137;28;20033;-72
2023/12/27 07:00:30;;;;;;;5.97;1.30;;;;;;;0.88;100.00;101610.44;6056519;28;20029;-72
2023/12/27 07:03:26;;;;;;;6.80;1.33;;;;;;;0.79;100.00;101605.59;6051817;28;20052;-72
2023/12/27 07:06:21;;;;;;;7.43;1.40;;;;;;;0.80;100.00;101609.91;6047183;28;20034;-72
2023/12/27 07:09:17;;;;;;;4.70;1.40;;;;;;;0.89;100.00;101612.16;6049255;28;20037;-72
2023/12/27 07:12:13;;;;;;;8.48;1.33;;;;;;;0.89;100.00;101603.47;6050608;28;20477;-72
2023/12/27 07:15:10;;;;;;;9.87;1.90;;;;;;;1.00;100.00;101609.09;6051493;28;20040;-72
2023/12/27 07:18:06;;;;;;;8.90;2.17;;;;;;;1.00;100.00;101604.72;6053010;28;20037;-72
2023/12/27 07:21:01;;;;;;;11.38;2.05;;;;;;;1.03;100.00;101608.97;6039702;28;20474;-72
2023/12/27 07:23:56;;;;;;;10.70;1.70;;;;;;;1.01;100.00;101598.59;6056854;28;20041;-72
2023/12/27 07:26:52;;;;;;;8.00;1.90;;;;;;;1.06;100.00;101624.53;6060938;28;20036;-73
2023/12/27 07:29:47;;;;;;;5.83;1.60;;;;;;;1.03;100.00;101624.66;6056625;28;20057;-72
2023/12/27 07:32:42;;;;;;;6.73;2.10;;;;;;;1.05;100.00;101622.81;6058355;28;20033;-72
2023/12/27 07:35:39;;;;;;;7.93;1.90;;;;;;;1.19;100.00;101634.41;6053398;28;20389;-72
2023/12/27 07:38:35;;;;;;;8.40;1.45;;;;;;;1.21;100.00;101623.88;6055088;28;20065;-72
2023/12/27 07:41:30;;;;;;;7.63;1.85;;;;;;;1.27;100.00;101607.09;6056565;28;20040;-72
2023/12/27 07:44:26;;;;;;;11.43;1.40;;;;;;;1.39;100.00;101619.63;6051225;28;20025;-72
2023/12/27 07:47:21;;;;;;;8.45;1.83;;;;;;;1.48;100.00;101616.63;6052883;28;20030;-72
2023/12/27 07:50:17;;;;;;;11.20;1.33;;;;;;;1.48;100.00;101608.78;6051310;28;20495;-71
2023/12/27 07:53:12;;;;;;;6.63;1.47;;;;;;;1.63;100.00;101626.44;6056782;28;20033;-72
2023/12/27 07:56:09;;;;;;;11.77;1.50;;;;;;;1.66;100.00;101621.03;6059599;28;20029;-72
2023/12/27 07:59:04;;;;;;;5.25;1.20;;;;;;;1.70;100.00;101620.00;6055937;28;20271;-73
2023/12/27 08:02:00;;;;;;;5.97;1.90;;;;;;;1.73;100.00;101628.56;6060567;28;20038;-72
2023/12/27 08:04:56;;;;;;;5.45;1.35;;;;;;;1.69;100.00;101621.75;6057237;28;20041;-72
2023/12/27 08:07:51;;;;;;;8.97;1.90;;;;;;;1.72;100.00;101620.78;6061856;28;20033;-72
2023/12/27 08:10:46;;;;;;;5.17;1.40;;;;;;;1.81;100.00;101620.38;6056078;28;20492;-72
2023/12/27 08:13:42;;;;;;;16.67;1.97;;;;;;;1.78;100.00;101608.28;6056485;28;20043;-71
2023/12/27 08:16:37;;;;;;;7.00;1.90;;;;;;;1.83;100.00;101615.91;6055997;28;20045;-72
2023/12/27 08:19:32;;;;;;;7.07;1.70;;;;;;;1.83;100.00;101617.69;6051042;28;20045;-71
2023/12/27 08:22:28;;;;;;;10.85;1.85;;;;;;;1.84;100.00;101628.09;6057200;28;20136;-72
2023/12/27 08:25:24;;;;;;;9.18;1.67;;;;;;;1.85;100.00;101621.91;6052840;28;20025;-72
2023/12/27 08:28:19;;;;;;;6.50;1.33;;;;;;;1.80;100.00;101635.22;6047842;28;20105;-72
2023/12/27 08:31:14;;;;;;;7.10;2.27;;;;;;;1.82;100.00;101621.22;6050737;28;20465;-71
2023/12/27 08:34:10;;;;;;;5.67;1.87;;;;;;;1.89;100.00;101618.25;6052057;28;20030;-72
2023/12/27 08:37:05;;;;;;;7.53;2.30;;;;;;;2.05;100.00;101615.81;6049954;28;20529;-72
2023/12/27 08:40:00;;;;;;;6.67;1.70;;;;;;;2.13;100.00;101614.53;6058817;28;20276;-72
2023/12/27 08:42:57;;;;;;;9.43;2.00;;;;;;;2.15;100.00;101598.75;6054978;28;20117;-71
2023/12/27 08:45:53;;;;;;;5.28;1.90;;;;;;;2.24;100.00;101606.19;6049062;28;20269;-72
2023/12/27 08:48:48;;;;;;;3.78;1.15;;;;;;;2.22;100.00;101606.28;6050885;28;20041;-72
2023/12/27 08:51:44;;;;;;;4.22;1.20;;;;;;;2.13;100.00;101590.13;6049857;28;20053;-72
2023/12/27 08:54:39;;;;;;;7.07;2.27;;;;;;;2.12;100.00;101586.66;6049352;28;20041;-72
2023/12/27 08:57:34;;;;;;;5.72;1.70;;;;;;;2.18;100.00;101583.78;6050308;28;20022;-72
2023/12/27 09:00:30;;;;;;;7.00;1.90;;;;;;;2.17;100.00;101570.78;6050871;28;20026;-71
2023/12/27 09:03:25;;;;;;;7.03;2.07;;;;;;;2.20;100.00;101571.47;6051142;28;20040;-72
2023/12/27 09:06:20;;;;;;;7.17;1.80;;;;;;;2.34;100.00;101579.53;6050779;28;20677;-72
2023/12/27 09:09:16;;;;;;;23.40;8.70;;;;;;;2.31;100.00;101579.66;6051292;28;20095;-72
2023/12/27 09:12:11;;;;;;;19.67;5.80;;;;;;;2.36;100.00;101569.81;6048797;28;20292;-73
2023/12/27 09:15:07;;;;;;;11.32;3.80;;;;;;;2.42;100.00;101572.16;6049295;28;20034;-72
2023/12/27 09:18:03;;;;;;;7.03;1.70;;;;;;;2.52;100.00;101569.09;6050128;28;20069;-72
2023/12/27 09:20:58;;;;;;;7.93;1.75;;;;;;;2.60;100.00;101570.44;6050559;28;20037;-71
2023/12/27 09:23:54;;;;;;;9.57;2.57;;;;;;;2.66;100.00;101570.16;6047554;28;20029;-72
2023/12/27 09:26:49;;;;;;;9.80;1.98;;;;;;;2.73;100.00;101562.81;6047456;28;20033;-72
2023/12/27 09:29:45;;;;;;;7.47;2.20;;;;;;;2.78;100.00;101564.28;6048761;28;20033;-72
2023/12/27 09:32:42;;;;;;;9.50;3.30;;;;;;;2.72;100.00;101545.41;6018718;28;20304;-72
2023/12/27 09:35:40;;;;;;;9.40;3.17;;;;;;;2.74;100.00;101546.19;6045506;28;20026;-72
2023/12/27 09:38:37;;;;;;;7.93;2.25;;;;;;;2.74;100.00;101540.97;6048547;28;20030;-72
2023/12/27 09:41:33;;;;;;;7.53;2.28;;;;;;;2.82;100.00;101549.28;6048885;28;20034;-72
2023/12/27 09:44:29;;;;;;;7.80;2.30;;;;;;;2.86;100.00;101540.34;6049766;28;20033;-73
2023/12/27 09:47:25;;;;;;;7.75;2.60;;;;;;;2.90;100.00;101531.41;6046502;28;20401;-72
2023/12/27 09:50:21;;;;;;;10.90;4.10;;;;;;;3.04;100.00;101534.19;6047465;28;20034;-72
2023/12/27 09:53:17;;;;;;;9.07;3.05;;;;;;;3.01;100.00;101521.25;6049056;28;20040;-72
2023/12/27 09:56:13;;;;;;;8.52;2.85;;;;;;;3.10;100.00;101512.88;6048408;28;20045;-72
2023/12/27 09:59:11;;;;;;;11.33;2.47;;;;;;;3.15;100.00;101510.91;6047774;28;20038;-73
2023/12/27 10:02:13;;;;;;;9.40;3.80;;;;;;;3.10;100.00;101502.41;6039578;28;20273;-73
2023/12/27 10:05:19;;;;;;;14.05;6.05;;;;;;;3.12;100.00;101494.50;6050505;28;20033;-72
2023/12/27 10:08:14;;;;;;;15.80;7.05;;;;;;;3.19;100.00;101501.94;6041199;28;20477;-73
2023/12/27 10:11:11;;;;;;;18.67;5.18;;;;;;;3.20;100.00;101487.94;6050989;28;20033;-72
2023/12/27 10:14:06;;;;;;;5.82;2.17;;;;;;;3.33;100.00;101491.59;6044291;28;20593;-72
2023/12/27 10:17:03;;;;;;;17.60;8.95;;;;;;;3.37;100.00;101493.09;6047402;28;20037;-72
2023/12/27 10:19:58;;;;;;;7.85;2.22;;;;;;;3.41;100.00;101480.69;6047301;28;20113;-72
2023/12/27 10:22:53;;;;;;;9.80;3.10;;;;;;;3.45;100.00;101493.53;6047485;28;20030;-72
2023/12/27 10:25:51;;;;;;;11.68;2.85;;;;;;;3.56;100.00;101483.34;6047681;28;20108;-72
2023/12/27 10:28:46;;;;;;;12.20;2.58;;;;;;;3.52;100.00;101473.97;6047781;28;20105;-72
2023/12/27 10:31:41;;;;;;;9.80;4.47;;;;;;;3.57;100.00;101461.44;6047355;28;20037;-73
2023/12/27 10:34:37;;;;;;;15.20;3.10;;;;;;;3.74;100.00;101457.06;6047294;28;20280;-73
2023/12/27 10:37:32;;;;;;;11.60;2.90;;;;;;;3.71;100.00;101454.59;6053047;28;20117;-75
2023/12/27 10:40:29;;;;;;;12.50;2.93;;;;;;;3.87;100.00;101463.31;6053260;28;20049;-73
2023/12/27 10:43:24;;;;;;;10.18;2.63;;;;;;;3.82;100.00;101449.59;6055403;28;20556;-74
2023/12/27 10:46:20;;;;;;;12.30;2.92;;;;;;;3.90;100.00;101463.13;6053019;28;20038;-71
2023/12/27 10:49:16;;;;;;;16.23;3.23;;;;;;;3.97;100.00;101448.75;6053061;28;20069;-73
2023/12/27 10:52:12;;;;;;;9.27;2.00;;;;;;;4.02;100.00;101444.94;6054823;28;20285;-72
2023/12/27 10:55:09;;;;;;;7.18;1.63;;;;;;;4.08;100.00;101425.38;6042431;28;20037;-72
2023/12/27 10:58:24;;;;;;;10.20;3.08;;;;;;;4.12;100.00;101427.75;6040171;28;20505;-72
2023/12/27 11:01:19;;;;;;;6.80;2.30;;;;;;;4.19;100.00;101422.97;6049396;28;20037;-72
2023/12/27 11:04:16;;;;;;;8.52;2.80;;;;;;;4.17;100.00;101430.09;6051752;28;20041;-72
2023/12/27 11:07:13;;;;;;;8.27;1.83;;;;;;;4.19;100.00;101417.72;6046811;28;20510;-72
2023/12/27 11:10:10;;;;;;;6.50;1.88;;;;;;;4.21;100.00;101423.75;6050569;28;20141;-72
2023/12/27 11:13:09;;;;;;;5.95;1.70;;;;;;;4.18;100.00;101402.94;6050061;28;20528;-72
2023/12/27 11:16:05;;;;;;;8.13;2.15;;;;;;;4.25;100.00;101399.00;6052145;28;20030;-73
2023/12/27 11:19:02;;;;;;;5.80;1.90;;;;;;;4.27;100.00;101398.94;6051401;28;20470;-72
2023/12/27 11:21:58;;;;;;;9.70;1.70;;;;;;;4.31;100.00;101385.53;6049507;28;20034;-72
2023/12/27 11:24:54;;;;;;;5.37;1.70;;;;;;;4.42;100.00;101383.13;6051313;28;20030;-74
2023/12/27 11:27:51;;;;;;;10.65;2.88;;;;;;;4.53;100.00;101383.34;6054191;28;20733;-72
2023/12/27 11:30:47;;;;;;;8.27;2.25;;;;;;;4.43;100.00;101376.91;6052225;28;20380;-74
2023/12/27 11:33:43;;;;;;;12.27;3.08;;;;;;;4.51;100.00;101366.81;6050673;28;20033;-74
2023/12/27 11:36:38;;;;;;;7.75;2.95;;;;;;;4.65;100.00;101368.59;6051714;28;20034;-73
2023/12/27 11:39:35;;;;;;;7.65;2.00;;;;;;;4.67;100.00;101361.50;6039574;28;20118;-74
2023/12/27 11:42:31;;;;;;;5.40;1.73;;;;;;;4.67;100.00;101357.06;6059185;28;20121;-74
2023/12/27 11:45:59;;;;;;;5.03;1.88;;;;;;;4.79;100.00;101355.50;6053746;28;20041;-72
2023/12/27 11:48:54;;;;;;;5.55;1.70;;;;;;;4.77;100.00;101334.59;6040741;28;20401;-74
2023/12/27 11:51:51;;;;;;;7.88;2.08;;;;;;;4.80;100.00;101323.03;6050733;28;20045;-72
2023/12/27 11:54:47;;;;;;;8.02;2.40;;;;;;;4.90;100.00;101315.41;6055451;28;20362;-73
2023/12/27 11:57:42;;;;;;;12.10;2.13;;;;;;;4.95;100.00;101302.84;6051685;28;20046;-73
2023/12/27 12:00:38;;;;;;;10.55;2.33;;;;;;;5.01;100.00;101313.81;6052736;28;20041;-72
2023/12/27 12:03:36;;;;;;;4.60;1.90;;;;;;;4.88;100.00;101301.53;6056776;28;20036;-73
2023/12/27 12:06:59;;;;;;;14.63;2.25;;;;;;;4.93;100.00;101312.59;6049754;28;20133;-73
2023/12/27 12:09:54;;;;;;;8.85;2.05;;;;;;;4.98;100.00;101313.16;6050660;28;20484;-72
2023/12/27 12:12:51;;;;;;;13.80;1.70;;;;;;;4.88;100.00;101298.91;6050124;28;20033;-72
2023/12/27 12:15:47;;;;;;;11.85;1.60;;;;;;;4.91;100.00;101296.94;6048162;28;20112;-73
2023/12/27 12:18:44;;;;;;;6.15;1.40;;;;;;;4.85;100.00;101306.97;6049444;28;20124;-73
2023/12/27 12:21:40;;;;;;;4.18;1.27;;;;;;;4.76;100.00;101282.97;6032786;28;20022;-72
2023/12/27 12:24:35;;;;;;;3.55;1.23;;;;;;;4.88;100.00;101277.88;6049151;28;20021;-72
2023/12/27 12:27:31;;;;;;;8.30;1.40;;;;;;;4.85;100.00;101257.91;6050345;28;20064;-73
2023/12/27 12:30:26;;;;;;;7.03;2.15;;;;;;;4.77;100.00;101253.16;6049708;28;20465;-73
2023/12/27 12:34:49;;;;;;;6.63;2.22;;;;;;;4.75;100.00;101234.00;6122028;28;20379;-74
2023/12/27 12:37:45;;;;;;;3.60;1.40;;;;;;;4.70;100.00;101215.03;6132706;28;20037;-73
2023/12/27 12:40:40;;;;;;;6.45;1.52;;;;;;;4.77;100.00;101200.59;6122805;28;20025;-73
2023/12/27 12:43:36;;;;;;;6.20;1.80;;;;;;;4.72;100.00;101186.91;6125108;28;20117;-74
2023/12/27 12:46:32;;;;;;;8.68;1.75;;;;;;;4.82;100.00;101195.03;6124750;28;20081;-74
2023/12/27 12:49:29;;;;;;;8.80;2.00;;;;;;;4.86;100.00;101182.56;6124650;28;20032;-73
2023/12/27 12:52:24;;;;;;;9.35;2.80;;;;;;;4.92;100.00;101176.94;6134651;28;20033;-74
2023/12/27 12:55:21;;;;;;;5.77;1.90;;;;;;;5.00;100.00;101174.66;6128838;28;20064;-74
2023/12/27 12:58:16;;;;;;;5.78;2.38;;;;;;;5.01;100.00;101166.66;6133410;28;20020;-73
2023/12/27 13:01:12;;;;;;;10.20;2.90;;;;;;;4.91;100.00;101162.94;6128697;28;20020;-74
2023/12/27 13:04:07;;;;;;;6.13;1.90;;;;;;;4.92;100.00;101155.91;6130082;28;20313;-74
2023/12/27 13:07:04;;;;;;;8.30;2.70;;;;;;;4.90;100.00;101156.00;6128569;28;20608;-73
2023/12/27 13:10:00;;;;;;;3.72;1.98;;;;;;;4.94;100.00;101154.88;6117581;28;20016;-74
2023/12/27 13:12:56;;;;;;;4.30;1.80;;;;;;;5.00;100.00;101158.88;6128917;28;20039;-74
2023/12/27 13:15:51;;;;;;;10.85;2.35;;;;;;;5.06;100.00;101158.47;6136719;28;20387;-74
2023/12/27 13:18:47;;;;;;;8.20;2.00;;;;;;;5.02;100.00;101146.47;6129379;28;20039;-74
2023/12/27 13:21:43;;;;;;;13.20;2.00;;;;;;;5.06;100.00;101137.44;6129112;28;20614;-74
2023/12/27 13:24:39;;;;;;;5.47;1.73;;;;;;;5.06;100.00;101132.19;6129834;28;20037;-74
2023/12/27 13:27:34;;;;;;;7.05;3.25;;;;;;;5.06;100.00;101133.03;6125800;28;20062;-74
2023/12/27 13:30:29;;;;;;;9.55;3.20;;;;;;;5.03;100.00;101150.81;6124038;28;20024;-73
2023/12/27 13:33:25;;;;;;;7.10;2.50;;;;;;;5.03;100.00;101127.16;6133697;28;20055;-73
2023/12/27 13:36:20;;;;;;;6.88;1.70;;;;;;;5.03;100.00;101127.97;6125395;28;20024;-74
2023/12/27 13:39:15;;;;;;;12.50;3.60;;;;;;;5.08;100.00;101132.94;6122963;28;20463;-74